Buckley, Michigan
Current Conditions -  °F | °C
As of 4:46 PM on Monday 24 Nov 2014 (Local Time) from KTVC Reporting Station
Light Rain Light Rain  
Wind Chill: 35°   Ceiling: 1000
Heat Index: 39°   Visibility: 4mi
Dew Point: 36°   Wind: 6mph
Humidity: 89%   Direction: 330°NNW
Pressure: 29.16"   Gusts: NA
Location:  44.5°N, 85.68°W
Report Text: KTVC 242146Z 33005KT 4SM -RA BR OVC010 04/02 A2916 RMK AO2 P0006 T00390022
Loading
Personal Weather Stations






























Interactive Weather Map New forecast layout! Learn more

10-Day Weather Forecast

Advertisements
Track Severe Weather on mobile